NCAR-RAP Real-Time Weather Data

Output produced by METARs form (12 May 2021  12:11 UTC)
found at http://weather.rap.ucar.edu/surface/
 
KJST 121201Z AUTO 31009KT 10SM BKN012 03/M01 A3028 RMK AO2 T00331006
KJST 121154Z AUTO 31008KT 10SM SCT012 03/M01 A3028 RMK AO2 SLP268 T00281011 10028 20011 53018
KJST 121144Z AUTO 32009KT 10SM SCT013 03/M01 A3027 RMK AO2 T00281011
KJST 121054Z AUTO 00000KT 10SM OVC014 02/M02 A3026 RMK AO2 SLP261 T00221017
KJST 121027Z AUTO 34004KT 10SM OVC014 02/M02 A3025 RMK AO2 T00171017
KJST 120954Z AUTO 32013KT 10SM BKN015 02/M02 A3022 RMK AO2 SLP249 T00171022
KJST 120924Z AUTO 31012KT 10SM SCT014 01/M03 A3022 RMK AO2 T00111028
KJST 120902Z AUTO 31009KT 10SM BKN014 02/M03 A3022 RMK AO2 T00171028
KJST 120854Z AUTO 31010KT 10SM SCT013 BKN032 01/M03 A3022 RMK AO2 SLP247 T00111033 53005
KJST 120754Z AUTO 28007KT 10SM CLR 02/M04 A3020 RMK AO2 SLP240 T00171039
KJST 120654Z AUTO 29009KT 10SM CLR 02/M04 A3021 RMK AO2 SLP242 T00221039
KJST 120554Z AUTO 29007KT 10SM CLR 02/M04 A3021 RMK AO2 SLP242 T00221039 10072 20017 58000
KJST 120454Z AUTO 29007KT 10SM CLR 02/M04 A3022 RMK AO2 SLP246 T00221044 401110022
KJST 120354Z AUTO 30010KT 10SM CLR 03/M05 A3022 RMK AO2 SLP246 T00331050
KJST 120254Z AUTO 31012KT 10SM CLR 04/M06 A3021 RMK AO2 SLP242 T00391056 51020
KJST 120154Z AUTO 31012KT 10SM CLR 05/M06 A3019 RMK AO2 SLP236 T00501061
KJST 120054Z AUTO 31015G22KT 10SM CLR 06/M05 A3016 RMK AO2 SLP226 T00611050
KJST 112354Z AUTO 31011G21KT 10SM CLR 07/M06 A3014 RMK AO2 SLP218 60000 T00721056 10111 20072 53018
KJST 112254Z AUTO 29015G21KT 10SM FEW070 BKN080 09/M06 A3011 RMK AO2 SLP207 T00941056
KJST 112154Z AUTO 30016G23KT 10SM BKN075 09/M06 A3010 RMK AO2 SLP204 T00941056
KJST 112054Z AUTO 29013G22KT 10SM BKN060 BKN080 10/M04 A3009 RMK AO2 SLP197 60000 T01001044 58002